createdAt,value
2023-12-29T00:00:08.011Z,49.53
2023-12-29T00:02:36.332Z,49.40
2023-12-29T00:05:05.415Z,49.56
2023-12-29T00:07:33.964Z,49.29
2023-12-29T00:10:02.487Z,49.54
2023-12-29T00:12:30.886Z,49.38
2023-12-29T00:14:59.346Z,49.48
2023-12-29T00:17:29.268Z,48.91
2023-12-29T00:19:57.776Z,49.68
2023-12-29T00:22:28.844Z,49.71
2023-12-29T00:24:57.542Z,49.04
2023-12-29T00:27:25.881Z,49.42
2023-12-29T00:29:54.249Z,49.51
2023-12-29T00:32:23.426Z,49.55
2023-12-29T00:34:53.355Z,49.85
2023-12-29T00:37:21.908Z,50.00
2023-12-29T00:39:50.328Z,49.86
2023-12-29T00:42:18.685Z,50.30
2023-12-29T00:44:46.933Z,50.38
2023-12-29T00:47:15.408Z,50.55
2023-12-29T00:49:43.891Z,50.06
2023-12-29T00:52:14.023Z,49.80
2023-12-29T00:54:43.682Z,50.14
2023-12-29T00:57:12.081Z,49.85
2023-12-29T00:59:41.246Z,50.43
2023-12-29T01:02:10.053Z,50.36
2023-12-29T01:04:40.463Z,50.41
2023-12-29T01:07:09.032Z,50.38
2023-12-29T01:09:41.709Z,49.80
2023-12-29T01:12:10.197Z,49.53
2023-12-29T01:14:38.471Z,50.24
2023-12-29T01:17:07.174Z,49.70
2023-12-29T01:19:36.055Z,49.99
2023-12-29T01:22:04.642Z,50.24
2023-12-29T01:24:40.161Z,50.58
2023-12-29T01:27:15.316Z,50.46
2023-12-29T01:29:43.760Z,49.65
2023-12-29T01:32:12.121Z,50.15
2023-12-29T01:34:40.920Z,49.96
2023-12-29T01:37:09.521Z,50.68
2023-12-29T01:39:38.047Z,50.82
2023-12-29T01:42:06.900Z,50.16
2023-12-29T01:44:36.650Z,51.00
2023-12-29T01:47:07.601Z,50.05
2023-12-29T01:49:36.794Z,50.51
2023-12-29T01:52:06.068Z,50.42
2023-12-29T01:54:39.622Z,50.10
2023-12-29T01:57:09.686Z,50.30
2023-12-29T01:59:40.175Z,49.92
2023-12-29T02:02:09.040Z,50.27
2023-12-29T02:04:39.694Z,50.84
2023-12-29T02:07:08.272Z,50.19
2023-12-29T02:09:37.469Z,50.21
2023-12-29T02:12:06.445Z,50.71
2023-12-29T02:14:35.231Z,50.35
2023-12-29T02:17:13.732Z,51.07
2023-12-29T02:19:45.951Z,51.18
2023-12-29T02:22:15.468Z,50.11
2023-12-29T02:24:48.746Z,50.96
2023-12-29T02:27:36.812Z,50.42
2023-12-29T02:30:13.113Z,50.95
2023-12-29T02:32:44.170Z,50.63
2023-12-29T02:35:19.872Z,49.95
2023-12-29T02:37:49.640Z,50.28
2023-12-29T02:40:20.891Z,50.71
2023-12-29T02:42:49.866Z,49.86
2023-12-29T02:45:18.442Z,50.40
2023-12-29T02:47:47.350Z,50.55
2023-12-29T02:50:16.119Z,49.98
2023-12-29T02:52:44.389Z,50.01
2023-12-29T02:55:13.136Z,49.68
2023-12-29T02:57:43.052Z,50.42
2023-12-29T03:00:11.991Z,50.28
2023-12-29T03:02:40.301Z,49.48
2023-12-29T03:05:09.631Z,49.83
2023-12-29T03:07:38.056Z,49.72
2023-12-29T03:10:07.283Z,49.29
2023-12-29T03:12:35.823Z,49.68
2023-12-29T03:15:06.443Z,49.84
2023-12-29T03:17:36.054Z,49.57
2023-12-29T03:20:06.334Z,50.13
2023-12-29T03:22:34.789Z,50.26
2023-12-29T03:25:03.065Z,49.81
2023-12-29T03:27:31.342Z,50.00
2023-12-29T03:29:59.848Z,50.11
2023-12-29T03:32:29.686Z,50.54
2023-12-29T03:34:58.015Z,51.11
2023-12-29T03:37:26.287Z,50.72
2023-12-29T03:39:54.720Z,50.42
2023-12-29T03:42:23.061Z,50.77
2023-12-29T03:44:51.436Z,50.73
2023-12-29T03:47:19.698Z,51.29
2023-12-29T03:49:49.440Z,50.55
2023-12-29T03:52:17.748Z,50.93
2023-12-29T03:54:46.087Z,50.69
2023-12-29T03:57:14.655Z,51.36
2023-12-29T03:59:43.036Z,51.41
2023-12-29T04:02:11.562Z,50.88
2023-12-29T04:04:40.765Z,50.88
2023-12-29T04:07:10.582Z,51.38
2023-12-29T04:09:38.987Z,51.02
2023-12-29T04:12:08.015Z,51.09
2023-12-29T04:14:36.377Z,51.32
2023-12-29T04:17:06.521Z,50.73
2023-12-29T04:19:35.190Z,51.58
2023-12-29T04:22:03.617Z,50.33
2023-12-29T04:24:33.609Z,50.91
2023-12-29T04:27:02.368Z,50.51
2023-12-29T04:29:30.690Z,50.19
2023-12-29T04:31:59.135Z,50.30
2023-12-29T04:34:27.519Z,50.51
2023-12-29T04:36:55.937Z,50.95
2023-12-29T04:39:24.243Z,50.47
2023-12-29T04:41:54.211Z,50.99
2023-12-29T04:44:22.426Z,51.45
2023-12-29T04:46:50.773Z,51.43
2023-12-29T04:49:19.346Z,51.34
2023-12-29T04:51:49.768Z,50.91
2023-12-29T04:54:18.133Z,51.40
2023-12-29T04:56:46.456Z,51.28
2023-12-29T04:59:16.215Z,51.68
2023-12-29T05:01:44.810Z,50.89
2023-12-29T05:04:13.232Z,51.27
2023-12-29T05:06:41.668Z,51.02
2023-12-29T05:09:09.981Z,51.48
2023-12-29T05:11:38.613Z,51.55
2023-12-29T05:14:06.929Z,50.24
2023-12-29T05:16:36.649Z,50.30
2023-12-29T05:19:05.363Z,50.73
2023-12-29T05:21:33.716Z,50.77
2023-12-29T05:24:02.225Z,50.92
2023-12-29T05:26:30.531Z,51.33
2023-12-29T05:28:58.807Z,51.17
2023-12-29T05:31:30.115Z,50.64
2023-12-29T05:34:00.029Z,50.82
2023-12-29T05:36:28.375Z,51.48
2023-12-29T05:38:58.405Z,51.47
2023-12-29T05:41:26.927Z,51.50
2023-12-29T05:43:55.273Z,51.26
2023-12-29T05:46:23.669Z,51.43
2023-12-29T05:48:53.765Z,51.50
2023-12-29T05:51:24.815Z,51.87
2023-12-29T05:53:53.144Z,51.66
2023-12-29T05:56:22.686Z,51.31
2023-12-29T05:58:51.277Z,52.03
2023-12-29T06:01:19.569Z,51.94
2023-12-29T06:03:47.892Z,51.92
2023-12-29T06:06:16.336Z,51.16
2023-12-29T06:08:46.180Z,51.67
2023-12-29T06:11:18.251Z,51.20
2023-12-29T06:13:46.703Z,51.65
2023-12-29T06:16:20.745Z,51.56
2023-12-29T06:18:49.549Z,50.92
2023-12-29T06:21:18.050Z,51.63
2023-12-29T06:23:47.821Z,51.74
2023-12-29T06:26:19.778Z,51.86
2023-12-29T06:28:48.384Z,51.29
2023-12-29T06:31:17.152Z,51.78
2023-12-29T06:33:46.041Z,51.49
2023-12-29T06:36:15.234Z,51.19
2023-12-29T06:38:47.186Z,51.42
2023-12-29T06:41:16.958Z,51.11
2023-12-29T06:43:45.262Z,51.49
2023-12-29T06:48:43.831Z,51.59
2023-12-29T06:51:17.852Z,51.63
2023-12-29T06:53:46.165Z,52.08
2023-12-29T06:56:17.004Z,51.84
2023-12-29T06:58:46.005Z,52.37
2023-12-29T07:01:14.575Z,52.63
2023-12-29T07:03:43.124Z,52.29
2023-12-29T07:06:12.405Z,53.36
2023-12-29T07:08:40.753Z,52.38
2023-12-29T07:11:12.814Z,53.03
2023-12-29T07:13:42.958Z,53.29
2023-12-29T07:16:11.648Z,52.39
2023-12-29T07:18:40.164Z,52.76
2023-12-29T07:21:08.634Z,52.54
2023-12-29T07:23:36.894Z,53.61
2023-12-29T07:26:05.924Z,53.31
2023-12-29T07:28:34.624Z,53.60
2023-12-29T07:31:05.295Z,53.50
2023-12-29T07:33:34.075Z,53.72
2023-12-29T07:36:02.684Z,53.98
2023-12-29T07:38:31.029Z,53.88
2023-12-29T07:40:59.550Z,54.77
2023-12-29T07:43:27.822Z,54.62
2023-12-29T07:45:56.106Z,54.54
2023-12-29T07:48:26.029Z,53.81
2023-12-29T07:50:54.410Z,54.34
2023-12-29T07:53:22.728Z,54.45
2023-12-29T07:55:51.591Z,54.08
2023-12-29T07:58:19.910Z,54.08
2023-12-29T08:00:48.848Z,55.08
2023-12-29T08:03:17.464Z,54.35
2023-12-29T08:05:48.240Z,54.66
2023-12-29T08:08:16.803Z,53.98
2023-12-29T08:10:45.337Z,55.11
2023-12-29T08:13:13.721Z,54.57
2023-12-29T08:15:42.436Z,53.99
2023-12-29T08:18:10.859Z,54.30
2023-12-29T08:20:39.253Z,53.46
2023-12-29T08:23:09.136Z,54.06
2023-12-29T08:25:38.324Z,53.95
2023-12-29T08:28:07.860Z,54.16
2023-12-29T08:30:38.635Z,53.50
2023-12-29T08:33:07.314Z,53.75
2023-12-29T08:35:35.567Z,54.31
2023-12-29T08:38:03.888Z,53.54
2023-12-29T08:40:33.696Z,54.07
2023-12-29T08:43:02.767Z,53.25
2023-12-29T08:45:31.372Z,54.32
2023-12-29T08:48:00.223Z,53.55
2023-12-29T08:50:28.661Z,54.18
2023-12-29T08:52:56.895Z,53.48
2023-12-29T08:55:25.320Z,53.63
2023-12-29T08:57:55.944Z,53.89
2023-12-29T09:00:24.398Z,53.86
2023-12-29T09:02:52.632Z,54.28
2023-12-29T09:05:20.967Z,54.57
2023-12-29T09:07:49.150Z,54.13
2023-12-29T09:10:17.422Z,53.85
2023-12-29T09:12:45.728Z,53.89
2023-12-29T09:15:15.430Z,53.65
2023-12-29T09:17:43.724Z,53.47
2023-12-29T09:20:12.848Z,53.60
2023-12-29T09:22:41.232Z,53.59
2023-12-29T09:25:10.197Z,54.13
2023-12-29T09:27:38.741Z,54.07
2023-12-29T09:30:08.557Z,53.87
2023-12-29T09:32:39.055Z,54.22
2023-12-29T09:35:07.745Z,53.78
2023-12-29T09:37:36.050Z,54.45
2023-12-29T09:40:04.839Z,54.11
2023-12-29T09:42:34.230Z,54.47
2023-12-29T09:45:05.113Z,53.39
2023-12-29T09:47:37.329Z,53.64
2023-12-29T09:50:08.301Z,53.55
2023-12-29T09:52:37.887Z,54.39
2023-12-29T09:55:07.471Z,53.33
2023-12-29T09:57:35.808Z,53.00
2023-12-29T10:00:04.886Z,53.74
2023-12-29T10:02:33.500Z,54.11
2023-12-29T10:05:05.414Z,54.28
2023-12-29T10:07:39.106Z,54.13
2023-12-29T10:10:08.931Z,54.20
2023-12-29T10:12:39.542Z,54.19
2023-12-29T10:15:16.782Z,54.22
2023-12-29T10:17:54.245Z,53.59
2023-12-29T10:20:39.847Z,54.10
2023-12-29T10:23:15.512Z,54.73
2023-12-29T10:25:43.762Z,54.36
2023-12-29T10:28:12.567Z,53.86
2023-12-29T10:30:41.828Z,54.06
2023-12-29T10:33:11.102Z,54.05
2023-12-29T10:35:40.464Z,54.31
2023-12-29T10:38:14.581Z,54.27
2023-12-29T10:40:44.374Z,54.10
2023-12-29T10:43:12.930Z,54.44
2023-12-29T10:45:41.364Z,54.04
2023-12-29T10:48:10.655Z,54.19
2023-12-29T10:50:47.015Z,53.61
2023-12-29T10:53:18.864Z,53.93
2023-12-29T10:55:47.516Z,53.31
2023-12-29T10:58:19.254Z,53.44
2023-12-29T11:00:47.841Z,53.52
2023-12-29T11:03:18.086Z,53.81
2023-12-29T11:05:46.523Z,53.76
2023-12-29T11:08:20.044Z,53.48
2023-12-29T11:10:50.643Z,53.37
2023-12-29T11:13:20.785Z,53.56
2023-12-29T11:15:50.495Z,53.43
2023-12-29T11:18:20.458Z,52.93
2023-12-29T11:20:49.166Z,53.33
2023-12-29T11:23:19.340Z,52.93
2023-12-29T11:25:48.253Z,53.49
2023-12-29T11:28:16.996Z,53.36
2023-12-29T11:30:45.641Z,53.52
2023-12-29T11:33:20.279Z,53.61
2023-12-29T11:35:53.724Z,53.03
2023-12-29T11:38:47.507Z,53.37
2023-12-29T11:41:24.007Z,52.83
2023-12-29T11:43:59.971Z,52.58
2023-12-29T11:46:38.564Z,52.84
2023-12-29T11:49:07.449Z,52.77
2023-12-29T11:51:38.086Z,52.48
2023-12-29T11:54:09.550Z,52.29
2023-12-29T11:56:39.698Z,51.74
2023-12-29T11:59:21.865Z,51.75
2023-12-29T12:01:51.797Z,51.96
2023-12-29T12:04:41.867Z,51.90
2023-12-29T12:07:15.443Z,51.97
2023-12-29T12:09:45.659Z,51.90
2023-12-29T12:12:14.887Z,51.89
2023-12-29T12:14:47.245Z,51.38
2023-12-29T12:17:30.006Z,51.74
2023-12-29T12:20:01.016Z,51.57
2023-12-29T12:22:34.054Z,51.92
2023-12-29T12:25:06.052Z,51.73
2023-12-29T12:27:34.497Z,51.62
2023-12-29T12:30:02.914Z,51.15
2023-12-29T12:32:32.110Z,51.38
2023-12-29T12:35:00.700Z,51.05
2023-12-29T12:37:30.896Z,50.27
2023-12-29T12:39:59.332Z,50.15
2023-12-29T12:42:29.645Z,50.53
2023-12-29T12:45:05.684Z,50.19
2023-12-29T12:47:37.485Z,50.43
2023-12-29T12:50:08.414Z,49.89
2023-12-29T12:52:38.765Z,49.89
2023-12-29T12:55:08.996Z,50.27
2023-12-29T12:57:39.506Z,50.19
2023-12-29T13:00:10.572Z,50.28
2023-12-29T13:02:39.760Z,49.94
2023-12-29T13:05:09.723Z,50.23
2023-12-29T13:07:38.284Z,50.10
2023-12-29T13:10:08.250Z,49.34
2023-12-29T13:12:36.650Z,49.65
2023-12-29T13:15:11.344Z,49.99
2023-12-29T13:17:39.672Z,49.36
2023-12-29T13:20:09.449Z,49.51
2023-12-29T13:22:38.562Z,49.91
2023-12-29T13:25:09.657Z,49.67
2023-12-29T13:27:41.371Z,49.24
2023-12-29T13:30:13.688Z,49.92
2023-12-29T13:32:43.023Z,49.20
2023-12-29T13:35:19.212Z,48.85
2023-12-29T13:37:54.183Z,48.95
2023-12-29T13:40:28.956Z,48.51
2023-12-29T13:43:02.426Z,48.41
2023-12-29T13:45:33.569Z,48.91
2023-12-29T13:48:04.342Z,48.63
2023-12-29T13:50:32.879Z,47.89
2023-12-29T13:53:01.043Z,48.27
2023-12-29T13:55:29.990Z,48.27
2023-12-29T13:57:58.449Z,47.72
2023-12-29T14:00:30.257Z,48.44
2023-12-29T14:03:08.524Z,48.14
2023-12-29T14:05:41.906Z,47.78
2023-12-29T14:08:20.002Z,48.56
2023-12-29T14:10:49.127Z,48.00
2023-12-29T14:13:19.216Z,48.69
2023-12-29T14:15:53.101Z,48.14
2023-12-29T14:18:48.126Z,48.69
2023-12-29T14:21:26.738Z,48.42
2023-12-29T14:24:11.908Z,48.90
2023-12-29T14:26:41.748Z,48.76
2023-12-29T14:29:11.479Z,49.19
2023-12-29T14:31:41.822Z,48.59
2023-12-29T14:34:13.106Z,48.86
2023-12-29T14:36:42.860Z,49.23
2023-12-29T14:39:12.659Z,48.66
2023-12-29T14:41:41.723Z,49.36
2023-12-29T14:44:10.246Z,48.63
2023-12-29T14:46:39.201Z,48.57
2023-12-29T14:49:09.052Z,49.47
2023-12-29T14:51:39.129Z,48.55
2023-12-29T14:54:08.116Z,49.12
2023-12-29T14:56:36.476Z,48.95
2023-12-29T14:59:07.104Z,49.41
2023-12-29T15:01:36.010Z,49.26
2023-12-29T15:04:05.556Z,49.24
2023-12-29T15:06:33.999Z,48.52
2023-12-29T15:09:04.421Z,48.64
2023-12-29T15:11:32.685Z,49.71
2023-12-29T15:14:00.911Z,49.43
2023-12-29T15:16:29.268Z,49.80
2023-12-29T15:18:57.789Z,49.39
2023-12-29T15:21:26.452Z,49.75
2023-12-29T15:23:55.273Z,49.38
2023-12-29T15:26:25.060Z,49.17
2023-12-29T15:28:53.567Z,49.30
2023-12-29T15:31:21.966Z,49.06
2023-12-29T15:33:50.418Z,49.69
2023-12-29T15:36:21.958Z,48.95
2023-12-29T15:38:50.398Z,49.58
2023-12-29T15:41:18.618Z,48.90
2023-12-29T15:43:48.123Z,49.51
2023-12-29T15:46:16.768Z,49.30
2023-12-29T15:48:45.556Z,49.83
2023-12-29T15:51:15.027Z,49.68
2023-12-29T15:53:43.186Z,49.85
2023-12-29T15:56:19.664Z,49.79
2023-12-29T15:58:49.687Z,49.30
2023-12-29T16:01:26.918Z,48.99
2023-12-29T16:03:55.417Z,49.57
2023-12-29T16:06:24.656Z,49.11
2023-12-29T16:08:55.540Z,49.26
2023-12-29T16:11:25.197Z,50.14
2023-12-29T16:13:55.756Z,50.09
2023-12-29T16:16:28.587Z,49.93
2023-12-29T16:18:56.788Z,50.38
2023-12-29T16:21:25.115Z,49.83
2023-12-29T16:23:53.391Z,49.75
2023-12-29T16:26:28.041Z,50.61
2023-12-29T16:29:05.713Z,50.21
2023-12-29T16:31:35.015Z,50.42
2023-12-29T16:34:03.401Z,50.37
2023-12-29T16:36:32.365Z,49.99
2023-12-29T16:39:00.610Z,49.74
2023-12-29T16:41:28.807Z,49.81
2023-12-29T16:43:57.818Z,50.17
2023-12-29T16:46:27.510Z,50.49
2023-12-29T16:48:55.838Z,50.36
2023-12-29T16:51:24.174Z,50.64
2023-12-29T16:53:52.409Z,50.72
2023-12-29T16:56:20.678Z,50.03
2023-12-29T16:58:48.970Z,50.04
2023-12-29T17:01:19.052Z,50.29
2023-12-29T17:03:49.097Z,50.73
2023-12-29T17:06:17.443Z,50.70
2023-12-29T17:08:45.711Z,50.82
2023-12-29T17:11:14.045Z,50.68
2023-12-29T17:13:42.364Z,51.00
2023-12-29T17:16:12.868Z,51.06
2023-12-29T17:18:41.715Z,50.25
2023-12-29T17:21:12.836Z,50.22
2023-12-29T17:23:41.035Z,50.81
2023-12-29T17:26:15.577Z,50.95
2023-12-29T17:28:43.896Z,50.45
2023-12-29T17:31:12.964Z,51.52
2023-12-29T17:33:41.923Z,51.41
2023-12-29T17:36:12.126Z,50.86
2023-12-29T17:38:43.038Z,51.06
2023-12-29T17:41:12.368Z,51.63
2023-12-29T17:43:40.598Z,51.37
2023-12-29T17:46:09.947Z,51.84
2023-12-29T17:48:38.315Z,51.61
2023-12-29T17:51:08.595Z,51.80
2023-12-29T17:53:38.697Z,51.51
2023-12-29T17:56:08.562Z,51.82
2023-12-29T17:58:38.369Z,52.07
2023-12-29T18:01:06.827Z,51.88
2023-12-29T18:03:35.254Z,52.38
2023-12-29T18:06:07.447Z,52.05
2023-12-29T18:08:35.746Z,52.33
2023-12-29T18:11:07.283Z,52.65
2023-12-29T18:13:36.545Z,52.40
2023-12-29T18:16:10.641Z,52.51
2023-12-29T18:18:40.223Z,52.62
2023-12-29T18:21:09.787Z,52.80
2023-12-29T18:23:37.914Z,52.42
2023-12-29T18:26:07.635Z,52.67
2023-12-29T18:28:39.186Z,52.46
2023-12-29T18:31:07.590Z,52.31
2023-12-29T18:33:37.783Z,52.63
2023-12-29T18:36:07.149Z,52.46
2023-12-29T18:38:35.724Z,51.86
2023-12-29T18:41:08.847Z,52.23
2023-12-29T18:43:37.562Z,52.66
2023-12-29T18:46:06.673Z,52.47
2023-12-29T18:48:35.201Z,52.67
2023-12-29T18:51:04.377Z,52.76
2023-12-29T18:53:32.753Z,52.91
2023-12-29T18:56:00.949Z,52.97
2023-12-29T18:58:30.704Z,53.04
2023-12-29T19:01:04.278Z,52.98
2023-12-29T19:03:33.700Z,53.13
2023-12-29T19:06:01.875Z,53.00
2023-12-29T19:08:30.234Z,52.19
2023-12-29T19:10:58.807Z,52.88
2023-12-29T19:13:27.196Z,52.46
2023-12-29T19:16:03.758Z,52.78
2023-12-29T19:18:32.136Z,52.91
2023-12-29T19:21:00.629Z,52.44
2023-12-29T19:23:29.669Z,52.93
2023-12-29T19:25:57.920Z,53.11
2023-12-29T19:28:27.259Z,53.15
2023-12-29T19:30:55.579Z,53.23
2023-12-29T19:33:25.517Z,53.23
2023-12-29T19:35:55.350Z,53.53
2023-12-29T19:38:24.302Z,53.56
2023-12-29T19:40:54.303Z,53.61
2023-12-29T19:43:23.406Z,53.34
2023-12-29T19:45:51.677Z,53.32
2023-12-29T19:48:19.986Z,53.10
2023-12-29T19:50:49.676Z,52.77
2023-12-29T19:53:20.700Z,53.21
2023-12-29T19:55:50.709Z,53.41
2023-12-29T19:58:18.991Z,53.63
2023-12-29T20:00:47.534Z,53.29
2023-12-29T20:03:15.856Z,53.39
2023-12-29T20:05:44.640Z,53.26
2023-12-29T20:08:14.538Z,53.40
2023-12-29T20:10:42.707Z,53.63
2023-12-29T20:13:11.619Z,53.60
2023-12-29T20:15:40.088Z,53.76
2023-12-29T20:18:08.433Z,53.84
2023-12-29T20:20:36.767Z,53.96
2023-12-29T20:23:05.394Z,54.11
2023-12-29T20:25:35.057Z,53.80
2023-12-29T20:28:03.919Z,53.76
2023-12-29T20:30:32.332Z,53.60
2023-12-29T20:33:01.761Z,53.64
2023-12-29T20:35:30.154Z,53.90
2023-12-29T20:37:58.269Z,53.00
2023-12-29T20:40:28.026Z,53.58
2023-12-29T20:42:57.868Z,53.42
2023-12-29T20:45:26.072Z,53.49
2023-12-29T20:47:54.898Z,53.80
2023-12-29T20:50:23.257Z,53.74
2023-12-29T20:52:51.417Z,53.79
2023-12-29T20:55:19.650Z,54.27
2023-12-29T20:57:47.894Z,53.92
2023-12-29T21:00:18.571Z,53.71
2023-12-29T21:02:47.061Z,54.16
2023-12-29T21:05:18.042Z,54.18
2023-12-29T21:07:47.874Z,54.63
2023-12-29T21:10:16.349Z,54.84
2023-12-29T21:12:44.609Z,54.54
2023-12-29T21:15:13.180Z,54.47
2023-12-29T21:17:43.021Z,54.39
2023-12-29T21:20:14.755Z,54.09
2023-12-29T21:22:44.570Z,54.57
2023-12-29T21:25:13.080Z,54.38
2023-12-29T21:27:41.813Z,54.65
2023-12-29T21:30:12.730Z,54.10
2023-12-29T21:32:43.398Z,54.09
2023-12-29T21:35:11.817Z,54.03
2023-12-29T21:37:40.458Z,54.29
2023-12-29T21:40:10.063Z,54.37
2023-12-29T21:42:39.243Z,54.37
2023-12-29T21:45:11.254Z,54.43
2023-12-29T21:47:42.511Z,54.25
2023-12-29T21:50:13.029Z,54.51
2023-12-29T21:52:41.557Z,54.30
2023-12-29T21:55:09.960Z,54.36
2023-12-29T21:57:38.309Z,54.16
2023-12-29T22:00:08.310Z,54.50
2023-12-29T22:02:36.521Z,54.25
2023-12-29T22:05:05.290Z,54.82
2023-12-29T22:07:36.758Z,54.58
2023-12-29T22:10:06.634Z,54.76
2023-12-29T22:12:34.868Z,55.39
2023-12-29T22:15:03.152Z,55.46
2023-12-29T22:17:31.314Z,55.04
2023-12-29T22:19:59.809Z,55.05
2023-12-29T22:22:28.134Z,55.54
2023-12-29T22:24:57.874Z,54.94
2023-12-29T22:27:27.107Z,55.34
2023-12-29T22:29:55.390Z,54.97
2023-12-29T22:32:23.788Z,55.13
2023-12-29T22:34:51.997Z,55.55
2023-12-29T22:37:20.298Z,55.93
2023-12-29T22:39:48.560Z,55.90
2023-12-29T22:42:18.219Z,55.68
2023-12-29T22:44:46.382Z,56.37
2023-12-29T22:47:14.576Z,56.04
2023-12-29T22:49:42.794Z,56.20
2023-12-29T22:52:10.996Z,56.50
2023-12-29T22:54:39.131Z,56.61
2023-12-29T22:57:07.371Z,55.99
2023-12-29T22:59:38.567Z,56.41
2023-12-29T23:02:07.171Z,55.89
2023-12-29T23:04:35.596Z,57.11
2023-12-29T23:07:04.677Z,56.28
2023-12-29T23:09:36.097Z,56.36
2023-12-29T23:12:05.185Z,56.88
2023-12-29T23:14:33.860Z,56.47
2023-12-29T23:17:07.957Z,57.42
2023-12-29T23:19:37.091Z,56.96
2023-12-29T23:22:05.572Z,57.99
2023-12-29T23:24:33.769Z,57.60
2023-12-29T23:27:02.169Z,56.69
2023-12-29T23:29:30.328Z,57.42
2023-12-29T23:31:58.433Z,57.54
2023-12-29T23:34:28.355Z,56.44
2023-12-29T23:36:56.759Z,57.18
2023-12-29T23:39:24.965Z,57.00
2023-12-29T23:41:53.279Z,56.23
2023-12-29T23:44:21.611Z,56.79
2023-12-29T23:46:49.736Z,56.73
2023-12-29T23:49:18.052Z,56.81
2023-12-29T23:51:47.879Z,57.10
2023-12-29T23:54:16.476Z,56.21
2023-12-29T23:56:44.819Z,57.02
2023-12-29T23:59:12.971Z,56.53
